createdAt,value
2022-12-20T00:00:51.637Z,101404.03
2022-12-20T00:03:19.758Z,101400.19
2022-12-20T00:05:46.560Z,101405.66
2022-12-20T00:08:13.011Z,101417.06
2022-12-20T00:10:41.856Z,101400.09
2022-12-20T00:13:09.192Z,101398.66
2022-12-20T00:15:35.711Z,101395.31
2022-12-20T00:18:02.562Z,101395.59
2022-12-20T00:20:29.106Z,101396.44
2022-12-20T00:22:55.660Z,101390.91
2022-12-20T00:25:22.453Z,101368.00
2022-12-20T00:27:49.565Z,101378.63
2022-12-20T00:30:16.406Z,101372.03
2022-12-20T00:32:44.318Z,101381.03
2022-12-20T00:35:11.859Z,101375.75
2022-12-20T00:37:38.680Z,101371.44
2022-12-20T00:40:06.258Z,101376.25
2022-12-20T00:42:32.780Z,101389.00
2022-12-20T00:44:58.938Z,101390.59
2022-12-20T00:47:25.348Z,101378.63
2022-12-20T00:49:51.443Z,101387.84
2022-12-20T00:52:17.822Z,101379.69
2022-12-20T00:54:43.869Z,101376.16
2022-12-20T00:57:10.400Z,101376.25
2022-12-20T00:59:36.465Z,101377.78
2022-12-20T01:02:03.064Z,101379.69
2022-12-20T01:04:29.284Z,101369.81
2022-12-20T01:06:55.682Z,101370.09
2022-12-20T01:09:22.954Z,101372.50
2022-12-20T01:11:49.439Z,101367.41
2022-12-20T01:14:16.284Z,101365.88
2022-12-20T01:16:46.045Z,101377.84
2022-12-20T01:19:15.982Z,101377.66
2022-12-20T01:21:45.843Z,101375.34
2022-12-20T01:24:14.217Z,101383.63
2022-12-20T01:26:41.092Z,101370.56
2022-12-20T01:29:07.287Z,101358.31
2022-12-20T01:31:33.992Z,101361.56
2022-12-20T01:34:00.261Z,101355.44
2022-12-20T01:36:32.905Z,101347.47
2022-12-20T01:39:03.189Z,101339.50
2022-12-20T01:41:30.751Z,101337.22
2022-12-20T01:44:01.038Z,101337.13
2022-12-20T01:46:33.055Z,101335.69
2022-12-20T01:49:12.280Z,101336.84
2022-12-20T01:51:46.787Z,101338.00
2022-12-20T01:54:24.716Z,101323.13
2022-12-20T01:56:58.057Z,101320.63
2022-12-20T01:59:25.650Z,101312.31
2022-12-20T02:01:52.260Z,101312.31
2022-12-20T02:04:18.403Z,101308.81
2022-12-20T02:06:44.834Z,101312.19
2022-12-20T02:09:11.794Z,101297.06
2022-12-20T02:11:56.544Z,101302.50
2022-12-20T02:14:37.542Z,101299.84
2022-12-20T02:17:28.057Z,101297.53
2022-12-20T02:20:15.245Z,101302.91
2022-12-20T02:22:51.720Z,101305.59
2022-12-20T02:25:49.428Z,101299.66
2022-12-20T02:28:44.466Z,101300.88
2022-12-20T02:31:16.625Z,101303.88
2022-12-20T02:33:47.249Z,101295.81
2022-12-20T02:36:17.358Z,101292.75
2022-12-20T02:38:44.983Z,101294.84
2022-12-20T02:41:34.426Z,101290.03
2022-12-20T02:44:25.356Z,101289.28
2022-12-20T02:46:53.113Z,101287.84
2022-12-20T02:49:24.463Z,101284.50
2022-12-20T02:51:54.230Z,101298.31
2022-12-20T02:54:21.449Z,101301.66
2022-12-20T02:57:04.766Z,101306.94
2022-12-20T02:59:35.542Z,101306.75
2022-12-20T03:02:02.969Z,101308.38
2022-12-20T03:04:34.045Z,101304.94
2022-12-20T03:07:04.774Z,101304.38
2022-12-20T03:09:33.265Z,101306.00
2022-12-20T03:11:59.495Z,101299.66
2022-12-20T03:14:26.708Z,101308.78
2022-12-20T03:16:55.655Z,101307.16
2022-12-20T03:19:22.616Z,101306.19
2022-12-20T03:21:48.742Z,101305.25
2022-12-20T03:24:15.561Z,101307.38
2022-12-20T03:26:42.729Z,101303.13
2022-12-20T03:29:09.830Z,101299.97
2022-12-20T03:31:36.291Z,101300.63
2022-12-20T03:34:04.138Z,101292.94
2022-12-20T03:36:30.708Z,101303.69
2022-12-20T03:39:01.319Z,101299.75
2022-12-20T03:41:30.925Z,101287.19
2022-12-20T03:43:57.271Z,101299.84
2022-12-20T03:46:25.023Z,101289.69
2022-12-20T03:48:52.944Z,101292.94
2022-12-20T03:51:19.030Z,101279.50
2022-12-20T03:53:45.501Z,101286.75
2022-12-20T03:56:13.321Z,101290.59
2022-12-20T03:58:41.945Z,101292.81
2022-12-20T04:01:23.001Z,101295.41
2022-12-20T04:03:50.329Z,101292.63
2022-12-20T04:06:17.229Z,101293.28
2022-12-20T04:08:44.803Z,101286.41
2022-12-20T04:11:15.782Z,101284.31
2022-12-20T04:13:53.174Z,101284.41
2022-12-20T04:16:22.499Z,101279.69
2022-12-20T04:18:49.446Z,101285.44
2022-12-20T04:21:22.072Z,101292.94
2022-12-20T04:23:48.655Z,101291.16
2022-12-20T04:26:16.107Z,101290.09
2022-12-20T04:28:42.624Z,101294.25
2022-12-20T04:31:10.340Z,101300.19
2022-12-20T04:33:38.706Z,101290.44
2022-12-20T04:36:05.649Z,101294.00
2022-12-20T04:38:34.077Z,101299.81
2022-12-20T04:41:00.255Z,101301.28
2022-12-20T04:43:31.614Z,101308.03
2022-12-20T04:45:59.316Z,101313.41
2022-12-20T04:51:13.425Z,101303.53
2022-12-20T04:53:49.301Z,101307.22
2022-12-20T04:56:33.735Z,101307.22
2022-12-20T04:59:06.184Z,101312.09
2022-12-20T05:01:33.306Z,101310.69
2022-12-20T05:03:59.889Z,101301.59
2022-12-20T05:06:30.071Z,101302.88
2022-12-20T05:08:56.737Z,101296.75
2022-12-20T05:11:24.078Z,101295.22
2022-12-20T05:13:50.801Z,101288.09
2022-12-20T05:16:19.772Z,101284.78
2022-12-20T05:18:49.199Z,101287.13
2022-12-20T05:21:34.760Z,101281.22
2022-12-20T05:24:22.396Z,101280.03
2022-12-20T05:26:56.671Z,101284.97
2022-12-20T05:29:23.068Z,101278.69
2022-12-20T05:31:49.761Z,101277.19
2022-12-20T05:34:16.608Z,101277.81
2022-12-20T05:36:47.845Z,101275.81
2022-12-20T05:39:14.344Z,101281.56
2022-12-20T05:41:42.536Z,101275.00
2022-12-20T05:44:10.211Z,101276.38
2022-12-20T05:46:40.168Z,101280.47
2022-12-20T05:49:11.562Z,101278.09
2022-12-20T05:51:37.819Z,101284.94
2022-12-20T05:54:24.617Z,101275.06
2022-12-20T05:56:57.305Z,101273.13
2022-12-20T05:59:32.405Z,101273.13
2022-12-20T06:01:58.672Z,101272.38
2022-12-20T06:04:25.661Z,101278.91
2022-12-20T06:06:52.233Z,101283.66
2022-12-20T06:09:19.629Z,101289.63
2022-12-20T06:12:07.098Z,101278.19
2022-12-20T06:14:34.411Z,101281.31
2022-12-20T06:17:02.049Z,101283.16
2022-12-20T06:19:30.080Z,101281.69
2022-12-20T06:22:00.173Z,101297.75
2022-12-20T06:24:36.043Z,101292.06
2022-12-20T06:27:02.854Z,101290.56
2022-12-20T06:29:29.836Z,101294.00
2022-12-20T06:32:04.721Z,101287.13
2022-12-20T06:34:32.086Z,101286.91
2022-12-20T06:36:58.638Z,101284.56
2022-12-20T06:39:28.709Z,101279.63
2022-12-20T06:42:06.339Z,101294.72
2022-12-20T06:44:35.032Z,101298.31
2022-12-20T06:47:01.672Z,101292.69
2022-12-20T06:49:28.179Z,101300.19
2022-12-20T06:51:55.655Z,101300.00
2022-12-20T06:54:28.283Z,101293.75
2022-12-20T06:56:54.504Z,101290.63
2022-12-20T06:59:20.903Z,101299.91
2022-12-20T07:01:47.349Z,101301.84
2022-12-20T07:04:14.150Z,101294.03
2022-12-20T07:06:40.330Z,101291.63
2022-12-20T07:09:08.460Z,101294.56
2022-12-20T07:11:34.993Z,101295.78
2022-12-20T07:14:57.726Z,101299.56
2022-12-20T07:17:42.313Z,101301.75
2022-12-20T07:20:13.184Z,101304.97
2022-12-20T07:23:23.730Z,101309.22
2022-12-20T07:25:54.835Z,101297.72
2022-12-20T07:28:21.724Z,101294.56
2022-12-20T07:30:48.032Z,101292.84
2022-12-20T07:33:14.163Z,101295.31
2022-12-20T07:35:40.528Z,101292.63
2022-12-20T07:38:06.629Z,101287.56
2022-12-20T07:40:33.132Z,101309.59
2022-12-20T07:42:59.357Z,101307.16
2022-12-20T07:45:26.468Z,101305.25
2022-12-20T07:47:53.643Z,101300.81
2022-12-20T07:50:20.879Z,101291.13
2022-12-20T07:52:49.161Z,101296.03
2022-12-20T07:55:16.290Z,101301.91
2022-12-20T07:57:52.381Z,101283.63
2022-12-20T08:00:19.505Z,101288.81
2022-12-20T08:02:54.780Z,101290.03
2022-12-20T08:05:23.848Z,101298.50
2022-12-20T08:07:55.205Z,101295.06
2022-12-20T08:10:26.288Z,101283.25
2022-12-20T08:12:52.535Z,101290.19
2022-12-20T08:15:21.489Z,101297.72
2022-12-20T08:17:48.448Z,101297.41
2022-12-20T08:20:15.051Z,101293.16
2022-12-20T08:22:41.152Z,101304.78
2022-12-20T08:25:08.170Z,101293.28
2022-12-20T08:27:34.405Z,101293.97
2022-12-20T08:30:01.175Z,101300.66
2022-12-20T08:32:28.786Z,101301.63
2022-12-20T08:34:55.392Z,101309.91
2022-12-20T08:37:21.667Z,101308.19
2022-12-20T08:39:48.020Z,101296.34
2022-12-20T08:42:14.225Z,101281.84
2022-12-20T08:44:40.827Z,101292.06
2022-12-20T08:47:06.971Z,101294.97
2022-12-20T08:49:34.001Z,101283.41
2022-12-20T08:52:00.126Z,101280.50
2022-12-20T08:54:26.594Z,101279.31
2022-12-20T08:56:52.696Z,101275.22
2022-12-20T08:59:19.158Z,101279.31
2022-12-20T09:01:45.379Z,101275.06
2022-12-20T09:04:12.323Z,101283.84
2022-12-20T09:06:38.578Z,101293.84
2022-12-20T09:09:06.333Z,101272.44
2022-12-20T09:11:33.245Z,101267.91
2022-12-20T09:13:59.980Z,101275.66
2022-12-20T09:16:29.536Z,101268.75
2022-12-20T09:19:04.366Z,101271.13
2022-12-20T09:21:32.863Z,101271.09
2022-12-20T09:23:59.479Z,101261.22
2022-12-20T09:26:25.959Z,101256.34
2022-12-20T09:28:53.286Z,101250.69
2022-12-20T09:31:22.257Z,101262.50
2022-12-20T09:33:49.627Z,101254.50
2022-12-20T09:36:18.710Z,101263.22
2022-12-20T09:38:46.340Z,101260.00
2022-12-20T09:41:28.075Z,101260.00
2022-12-20T09:43:55.423Z,101263.75
2022-12-20T09:46:24.181Z,101262.25
2022-12-20T09:48:52.975Z,101249.63
2022-12-20T09:51:25.527Z,101266.75
2022-12-20T09:54:26.017Z,101263.09
2022-12-20T09:57:19.639Z,101252.00
2022-12-20T09:59:49.873Z,101252.56
2022-12-20T10:05:40.853Z,101269.16
2022-12-20T10:08:32.577Z,101282.50
2022-12-20T10:11:12.337Z,101272.56
2022-12-20T10:13:59.538Z,101271.66
2022-12-20T10:16:38.314Z,101264.94
2022-12-20T10:19:42.713Z,101260.19
2022-12-20T10:22:17.003Z,101264.25
2022-12-20T10:25:06.150Z,101268.03
2022-12-20T10:27:37.173Z,101264.25
2022-12-20T10:30:10.465Z,101260.25
2022-12-20T10:32:37.148Z,101263.88
2022-12-20T10:35:09.105Z,101258.09
2022-12-20T10:37:35.973Z,101255.16
2022-12-20T10:40:07.349Z,101248.47
2022-12-20T10:42:38.822Z,101255.22
2022-12-20T10:45:14.259Z,101251.09
2022-12-20T10:47:44.796Z,101248.75
2022-12-20T10:50:16.927Z,101242.41
2022-12-20T10:52:44.466Z,101241.06
2022-12-20T10:55:32.688Z,101236.47
2022-12-20T10:58:03.381Z,101230.47
2022-12-20T11:00:31.636Z,101232.56
2022-12-20T11:03:38.682Z,101235.88
2022-12-20T11:06:15.731Z,101232.94
2022-12-20T11:08:51.295Z,101233.19
2022-12-20T11:11:24.297Z,101234.03
2022-12-20T11:13:51.529Z,101220.94
2022-12-20T11:16:36.143Z,101229.25
2022-12-20T11:19:27.024Z,101220.06
2022-12-20T11:22:13.342Z,101210.97
2022-12-20T11:24:52.888Z,101215.41
2022-12-20T11:27:24.109Z,101203.03
2022-12-20T11:29:59.464Z,101198.84
2022-12-20T11:32:48.702Z,101201.78
2022-12-20T11:35:46.375Z,101205.22
2022-12-20T11:38:30.796Z,101191.00
2022-12-20T11:41:18.008Z,101192.97
2022-12-20T11:44:25.344Z,101186.97
2022-12-20T11:46:55.942Z,101189.28
2022-12-20T11:49:33.982Z,101189.66
2022-12-20T11:52:38.423Z,101189.78
2022-12-20T11:55:19.872Z,101189.03
2022-12-20T11:58:18.476Z,101182.03
2022-12-20T12:00:44.191Z,101180.69
2022-12-20T12:03:24.686Z,101178.47
2022-12-20T12:05:55.927Z,101174.06
2022-12-20T12:08:38.504Z,101168.53
2022-12-20T12:14:22.119Z,101173.59
2022-12-20T12:16:53.142Z,101176.88
2022-12-20T12:19:20.587Z,101179.09
2022-12-20T12:21:55.545Z,101174.91
2022-12-20T12:24:32.137Z,101177.97
2022-12-20T12:26:59.158Z,101167.34
2022-12-20T12:29:29.016Z,101166.09
2022-12-20T12:31:58.008Z,101155.19
2022-12-20T12:34:46.892Z,101145.03
2022-12-20T12:37:34.407Z,101151.41
2022-12-20T12:40:28.716Z,101144.53
2022-12-20T12:43:13.167Z,101148.94
2022-12-20T12:45:47.555Z,101135.81
2022-12-20T12:48:22.781Z,101128.47
2022-12-20T12:50:53.516Z,101132.38
2022-12-20T12:53:26.773Z,101124.66
2022-12-20T12:56:07.273Z,101135.31
2022-12-20T12:58:34.523Z,101124.06
2022-12-20T13:01:08.992Z,101129.31
2022-12-20T13:03:40.385Z,101129.09
2022-12-20T13:06:35.803Z,101127.59
2022-12-20T13:09:02.620Z,101129.56
2022-12-20T13:11:46.329Z,101125.75
2022-12-20T13:14:16.596Z,101117.66
2022-12-20T13:19:36.243Z,101117.28
2022-12-20T13:22:05.734Z,101128.47
2022-12-20T13:24:57.190Z,101127.09
2022-12-20T13:27:34.204Z,101123.41
2022-12-20T13:30:06.616Z,101108.72
2022-12-20T13:32:48.762Z,101101.50
2022-12-20T13:35:24.652Z,101099.66
2022-12-20T13:38:01.301Z,101110.16
2022-12-20T13:40:56.646Z,101103.19
2022-12-20T13:43:27.353Z,101104.03
2022-12-20T13:46:09.165Z,101098.28
2022-12-20T13:48:46.303Z,101105.00
2022-12-20T13:51:18.927Z,101097.91
2022-12-20T13:54:08.012Z,101099.75
2022-12-20T13:56:40.608Z,101093.16
2022-12-20T13:59:14.787Z,101096.06
2022-12-20T14:01:53.496Z,101086.56
2022-12-20T14:04:21.200Z,101075.13
2022-12-20T14:06:58.917Z,101071.19
2022-12-20T14:09:37.405Z,101073.50
2022-12-20T14:12:07.194Z,101073.97
2022-12-20T14:14:41.843Z,101086.22
2022-12-20T14:17:30.564Z,101089.34
2022-12-20T14:20:06.649Z,101084.88
2022-12-20T14:22:34.208Z,101080.47
2022-12-20T14:25:05.062Z,101080.50
2022-12-20T14:27:35.551Z,101071.59
2022-12-20T14:30:05.030Z,101077.19
2022-12-20T14:32:31.842Z,101073.53
2022-12-20T14:34:58.972Z,101053.09
2022-12-20T14:37:31.556Z,101048.56
2022-12-20T14:40:09.067Z,101044.47
2022-12-20T14:42:38.495Z,101047.78
2022-12-20T14:45:15.336Z,101049.13
2022-12-20T14:48:05.052Z,101062.81
2022-12-20T14:50:35.370Z,101051.69
2022-12-20T14:53:02.815Z,101054.78
2022-12-20T14:55:44.816Z,101049.00
2022-12-20T14:58:34.286Z,101049.75
2022-12-20T15:01:31.838Z,101054.88
2022-12-20T15:03:59.894Z,101041.91
2022-12-20T15:06:51.833Z,101035.53
2022-12-20T15:09:19.011Z,101034.09
2022-12-20T15:11:47.189Z,101030.88
2022-12-20T15:14:22.371Z,101031.19
2022-12-20T15:16:49.660Z,101029.31
2022-12-20T15:19:16.414Z,101037.00
2022-12-20T15:21:44.581Z,101039.22
2022-12-20T15:24:14.739Z,101053.13
2022-12-20T15:26:41.978Z,101045.94
2022-12-20T15:29:24.198Z,101042.53
2022-12-20T15:32:03.394Z,101031.88
2022-12-20T15:34:35.397Z,101036.59
2022-12-20T15:37:04.346Z,101038.53
2022-12-20T15:39:32.585Z,101028.69
2022-12-20T15:42:03.096Z,101027.69
2022-12-20T15:44:31.060Z,101027.72
2022-12-20T15:46:57.931Z,101019.13
2022-12-20T15:49:31.633Z,101015.50
2022-12-20T15:51:59.082Z,101015.13
2022-12-20T15:54:27.052Z,101023.34
2022-12-20T15:56:55.341Z,101021.84
2022-12-20T15:59:58.351Z,101018.66
2022-12-20T16:02:23.883Z,101032.22
2022-12-20T16:04:51.730Z,101035.78
2022-12-20T16:07:18.936Z,101035.19
2022-12-20T16:09:45.483Z,101037.72
2022-12-20T16:12:24.106Z,101043.59
2022-12-20T16:14:51.026Z,101035.88
2022-12-20T16:17:18.162Z,101033.22
2022-12-20T16:19:45.478Z,101033.91
2022-12-20T16:22:17.615Z,101030.25
2022-12-20T16:24:45.391Z,101029.88
2022-12-20T16:27:12.463Z,101017.94
2022-12-20T16:29:40.679Z,101026.00
2022-12-20T16:32:18.956Z,101017.44
2022-12-20T16:34:46.103Z,101017.66
2022-12-20T16:37:13.337Z,101014.25
2022-12-20T16:39:40.881Z,101012.50
2022-12-20T16:42:16.401Z,101020.09
2022-12-20T16:44:44.159Z,101007.84
2022-12-20T16:47:11.371Z,101000.66
2022-12-20T16:49:37.882Z,100995.16
2022-12-20T16:52:06.068Z,101002.84
2022-12-20T16:54:32.982Z,101002.38
2022-12-20T16:56:59.883Z,101009.59
2022-12-20T16:59:26.316Z,101006.38
2022-12-20T17:01:56.364Z,100994.22
2022-12-20T17:04:26.104Z,100982.00
2022-12-20T17:06:52.956Z,100993.84
2022-12-20T17:12:13.478Z,100985.81
2022-12-20T17:14:39.874Z,100977.81
2022-12-20T17:17:07.060Z,100989.59
2022-12-20T17:19:33.489Z,100990.09
2022-12-20T17:24:44.944Z,100993.88
2022-12-20T17:27:11.543Z,100988.81
2022-12-20T17:29:37.909Z,100981.88
2022-12-20T17:32:18.952Z,100976.41
2022-12-20T17:34:45.780Z,100970.13
2022-12-20T17:37:12.291Z,100967.81
2022-12-20T17:39:38.803Z,100973.09
2022-12-20T17:42:05.379Z,100973.47
2022-12-20T17:44:31.717Z,100982.25
2022-12-20T17:46:58.443Z,100976.03
2022-12-20T17:49:24.966Z,100977.13
2022-12-20T17:51:52.265Z,100976.03
2022-12-20T17:54:28.049Z,100976.72
2022-12-20T17:56:56.739Z,100974.31
2022-12-20T17:59:25.069Z,100969.63
2022-12-20T18:01:51.829Z,100959.34
2022-12-20T18:04:18.580Z,100956.66
2022-12-20T18:06:45.995Z,100946.41
2022-12-20T18:09:18.229Z,100951.63
2022-12-20T18:11:46.545Z,100964.88
2022-12-20T18:14:13.400Z,100963.41
2022-12-20T18:16:41.088Z,100951.06
2022-12-20T18:19:13.885Z,100949.13
2022-12-20T18:21:41.084Z,100948.59
2022-12-20T18:24:10.596Z,100958.53
2022-12-20T18:26:37.247Z,100955.44
2022-12-20T18:29:03.581Z,100958.13
2022-12-20T18:31:33.244Z,100963.06
2022-12-20T18:34:00.560Z,100959.25
2022-12-20T18:36:30.163Z,100959.25
2022-12-20T18:38:58.269Z,100946.38
2022-12-20T18:41:27.376Z,100942.34
2022-12-20T18:43:59.581Z,100948.25
2022-12-20T18:46:27.297Z,100938.84
2022-12-20T18:48:57.729Z,100936.38
2022-12-20T18:51:27.817Z,100938.09
2022-12-20T18:53:56.490Z,100937.81
2022-12-20T18:56:27.919Z,100935.75
2022-12-20T18:58:56.558Z,100930.50
2022-12-20T19:01:29.965Z,100916.53
2022-12-20T19:03:58.722Z,100912.66
2022-12-20T19:06:26.503Z,100911.41
2022-12-20T19:08:52.826Z,100912.75
2022-12-20T19:11:22.890Z,100895.03
2022-12-20T19:13:50.633Z,100896.47
2022-12-20T19:16:23.603Z,100887.19
2022-12-20T19:18:50.909Z,100893.31
2022-12-20T19:21:24.038Z,100895.75
2022-12-20T19:23:55.213Z,100888.91
2022-12-20T19:26:26.684Z,100906.66
2022-12-20T19:28:54.044Z,100906.78
2022-12-20T19:31:23.694Z,100900.66
2022-12-20T19:33:56.239Z,100897.59
2022-12-20T19:36:34.717Z,100904.56
2022-12-20T19:39:02.838Z,100896.63
2022-12-20T19:41:31.975Z,100903.22
2022-12-20T19:43:58.952Z,100907.75
2022-12-20T19:46:29.298Z,100922.06
2022-12-20T19:48:58.737Z,100924.03
2022-12-20T19:51:26.974Z,100927.22
2022-12-20T19:53:54.288Z,100929.66
2022-12-20T19:56:24.574Z,100916.44
2022-12-20T19:58:52.036Z,100909.72
2022-12-20T20:01:20.579Z,100917.91
2022-12-20T20:03:47.172Z,100911.91
2022-12-20T20:06:14.151Z,100919.25
2022-12-20T20:08:40.931Z,100931.50
2022-12-20T20:11:10.238Z,100920.50
2022-12-20T20:13:38.311Z,100920.72
2022-12-20T20:16:06.709Z,100906.28
2022-12-20T20:18:35.198Z,100904.44
2022-12-20T20:21:11.801Z,100900.53
2022-12-20T20:23:39.147Z,100906.53
2022-12-20T20:26:09.340Z,100913.38
2022-12-20T20:28:43.732Z,100916.78
2022-12-20T20:31:14.191Z,100919.13
2022-12-20T20:33:41.276Z,100899.19
2022-12-20T20:36:12.481Z,100900.91
2022-12-20T20:38:39.360Z,100893.81
2022-12-20T20:41:06.055Z,100888.91
2022-12-20T20:43:36.153Z,100892.81
2022-12-20T20:46:03.863Z,100876.19
2022-12-20T20:48:31.267Z,100883.53
2022-12-20T20:50:58.672Z,100886.94
2022-12-20T20:53:32.709Z,100890.75
2022-12-20T20:56:05.044Z,100883.16
2022-12-20T20:58:32.338Z,100883.28
2022-12-20T21:01:04.092Z,100883.28
2022-12-20T21:03:31.274Z,100877.16
2022-12-20T21:08:44.577Z,100881.06
2022-12-20T21:11:11.795Z,100892.06
2022-12-20T21:13:38.635Z,100895.22
2022-12-20T21:16:11.550Z,100887.41
2022-12-20T21:18:38.051Z,100880.31
2022-12-20T21:21:09.903Z,100878.97
2022-12-20T21:23:37.546Z,100879.59
2022-12-20T21:26:04.636Z,100886.94
2022-12-20T21:28:31.364Z,100873.59
2022-12-20T21:31:02.780Z,100863.09
2022-12-20T21:33:29.396Z,100863.44
2022-12-20T21:36:04.629Z,100852.94
2022-12-20T21:38:31.135Z,100848.03
2022-12-20T21:41:11.240Z,100834.34
2022-12-20T21:43:37.628Z,100837.25
2022-12-20T21:46:04.981Z,100821.72
2022-12-20T21:48:31.542Z,100835.56
2022-12-20T21:51:09.330Z,100834.22
2022-12-20T21:53:40.770Z,100825.50
2022-12-20T21:56:08.135Z,100827.69
2022-12-20T21:58:35.065Z,100827.97
2022-12-20T22:01:04.447Z,100835.31
2022-12-20T22:03:31.601Z,100840.69
2022-12-20T22:06:00.224Z,100822.69
2022-12-20T22:08:27.759Z,100810.09
2022-12-20T22:11:11.786Z,100806.19
2022-12-20T22:13:41.969Z,100806.28
2022-12-20T22:16:14.554Z,100801.78
2022-12-20T22:18:42.127Z,100804.84
2022-12-20T22:21:11.818Z,100806.44
2022-12-20T22:23:39.093Z,100798.13
2022-12-20T22:26:08.795Z,100809.72
2022-12-20T22:28:35.879Z,100815.63
2022-12-20T22:31:07.628Z,100835.66
2022-12-20T22:33:34.331Z,100835.56
2022-12-20T22:36:01.445Z,100830.16
2022-12-20T22:38:27.897Z,100826.50
2022-12-20T22:40:58.136Z,100813.00
2022-12-20T22:43:25.339Z,100802.34
2022-12-20T22:45:58.628Z,100808.13
2022-12-20T22:48:25.929Z,100794.13
2022-12-20T22:51:00.376Z,100787.25
2022-12-20T22:53:26.944Z,100789.03
2022-12-20T22:55:53.994Z,100787.75
2022-12-20T22:58:20.787Z,100790.06
2022-12-20T23:00:50.117Z,100789.13
2022-12-20T23:03:16.409Z,100793.16
2022-12-20T23:05:51.874Z,100798.41
2022-12-20T23:08:18.831Z,100791.34
2022-12-20T23:11:03.981Z,100785.81
2022-12-20T23:13:48.988Z,100790.97
2022-12-20T23:16:15.941Z,100790.97
2022-12-20T23:18:42.521Z,100788.91
2022-12-20T23:21:27.918Z,100798.09
2022-12-20T23:23:56.127Z,100792.97
2022-12-20T23:26:22.923Z,100794.94
2022-12-20T23:28:49.169Z,100762.91
2022-12-20T23:31:15.761Z,100779.03
2022-12-20T23:33:43.893Z,100774.75
2022-12-20T23:36:10.929Z,100766.53
2022-12-20T23:38:37.465Z,100774.00
2022-12-20T23:41:08.954Z,100773.00
2022-12-20T23:43:35.453Z,100778.78
2022-12-20T23:46:08.727Z,100777.31
2022-12-20T23:48:35.205Z,100767.06
2022-12-20T23:51:01.918Z,100760.56
2022-12-20T23:53:28.824Z,100759.34
2022-12-20T23:56:05.142Z,100779.16
2022-12-20T23:58:31.896Z,100780.13
